Startpagina
METAR-TAF:

METAR-TAF

Vliegvelden :

Mendoza, Argentinië

breedte: 32-50S, lengte: 068-47W, hoogte: 705 m

Actueel weer

Dit bericht is 27 minuten geleden gemaakt, om 16:00 UTC
Wind 4 kt uit het zuidoosten
Temperatuur 22°C
Vochtigheid 60%
Druk 1009 hPa
Zicht 10 km of meer
geen wolken onder 1500 m en geen cumulonimbus

METAR: SAME 211600Z 14004KT CAVOK 22/14 Q1009

Tijdstip: 13:27 (16:27 UTC)

Verwachting

Dit bericht is 5 uur en het 27 minuten geleden gemaakt, om 11:00 UTC
Verwachting geldig van 21 om 12 UTC tot 22 om 12 UTC
Wind 10 kt uit het noordoosten
Zicht 10 km of meer
Weinig wolken op 4000 ft
Verspreide wolken op 10000 ft

TAF: SAME 211100Z 2112/2212 05010KT 9999 FEW040 SCT100 TX29/2120Z TN13/2210Z

Waarnemingen en weersverwachtingen van meer dan 4000 vliegvelden (METAR en TAF).

De beschikbare stations zijn de gele en rode punten op de kaart.

Ga met uw muis naar het station om de naam te zien.

Klik dan om waarnemingen en weersverwachtingen te zien.

kaart wijzigen: klik op de groene knoppen met een zwart kruis om in te zoomen, op de groene knop met een streepje om uit te zoomen of op de groene pijlen voor aangrenzende kaarten.


METAR-TAF: